createdAt,value
2019-04-11T00:01:56.653Z,21.37
2019-04-11T00:04:52.549Z,21.70
2019-04-11T00:07:48.834Z,22.52
2019-04-11T00:10:44.967Z,23.07
2019-04-11T00:13:39.444Z,23.62
2019-04-11T00:16:34.802Z,23.02
2019-04-11T00:19:30.072Z,23.05
2019-04-11T00:22:25.668Z,24.45
2019-04-11T00:25:21.472Z,24.55
2019-04-11T00:28:17.390Z,25.00
2019-04-11T00:31:14.632Z,25.60
2019-04-11T00:34:09.419Z,25.00
2019-04-11T00:37:05.159Z,25.82
2019-04-11T00:40:01.793Z,25.85
2019-04-11T00:42:58.635Z,26.55
2019-04-11T00:45:54.076Z,26.57
2019-04-11T00:48:50.325Z,25.80
2019-04-11T00:51:46.292Z,24.95
2019-04-11T00:54:41.454Z,24.87
2019-04-11T00:57:37.065Z,25.60
2019-04-11T01:00:33.282Z,23.50
2019-04-11T01:03:28.616Z,22.32
2019-04-11T01:06:23.992Z,22.95
2019-04-11T01:09:20.112Z,23.07
2019-04-11T01:12:16.463Z,22.73
2019-04-11T01:15:13.337Z,22.45
2019-04-11T01:18:09.749Z,21.37
2019-04-11T01:21:04.711Z,20.72
2019-04-11T01:24:00.228Z,20.65
2019-04-11T01:26:57.264Z,20.52
2019-04-11T01:29:52.258Z,21.50
2019-04-11T01:32:48.614Z,22.75
2019-04-11T01:35:43.703Z,21.50
2019-04-11T01:38:44.323Z,22.42
2019-04-11T01:41:39.507Z,21.95
2019-04-11T01:44:35.283Z,21.40
2019-04-11T01:47:45.027Z,21.85
2019-04-11T01:50:41.197Z,22.25
2019-04-11T01:53:37.258Z,22.93
2019-04-11T01:56:31.919Z,22.82
2019-04-11T01:59:27.293Z,23.47
2019-04-11T02:02:59.048Z,24.50
2019-04-11T02:05:54.762Z,23.20
2019-04-11T02:08:49.949Z,24.30
2019-04-11T02:11:45.844Z,24.67
2019-04-11T02:14:41.742Z,25.12
2019-04-11T02:17:37.268Z,25.55
2019-04-11T02:20:33.338Z,24.43
2019-04-11T02:23:39.368Z,22.90
2019-04-11T02:26:37.609Z,23.42
2019-04-11T02:29:33.383Z,23.83
2019-04-11T02:32:29.285Z,24.10
2019-04-11T02:35:26.713Z,25.30
2019-04-11T02:38:23.295Z,24.37
2019-04-11T02:41:18.959Z,25.37
2019-04-11T02:44:32.018Z,24.45
2019-04-11T02:47:17.442Z,24.95
2019-04-11T02:50:08.116Z,24.63
2019-04-11T02:53:02.918Z,24.67
2019-04-11T02:56:00.439Z,25.62
2019-04-11T02:58:54.616Z,24.72
2019-04-11T03:01:50.954Z,23.35
2019-04-11T03:04:46.484Z,23.20
2019-04-11T03:07:42.645Z,23.50
2019-04-11T03:10:37.997Z,23.10
2019-04-11T03:13:34.968Z,22.95
2019-04-11T03:16:42.907Z,22.10
2019-04-11T03:19:37.471Z,22.62
2019-04-11T03:22:22.602Z,22.52
2019-04-11T03:25:17.824Z,22.93
2019-04-11T03:28:19.095Z,24.23
2019-04-11T03:31:50.250Z,23.40
2019-04-11T03:40:22.390Z,24.80
2019-04-11T03:43:08.841Z,25.27
2019-04-11T03:46:15.959Z,25.20
2019-04-11T03:48:59.937Z,25.23
2019-04-11T03:51:47.700Z,25.20
2019-04-11T03:54:42.694Z,22.25
2019-04-11T03:57:37.585Z,22.05
2019-04-11T04:00:36.349Z,20.35
2019-04-11T04:03:31.063Z,19.50
2019-04-11T04:06:28.683Z,19.98
2019-04-11T04:09:24.065Z,20.30
2019-04-11T04:12:20.880Z,19.35
2019-04-11T04:15:51.711Z,20.75
2019-04-11T04:18:47.687Z,19.40
2019-04-11T04:21:51.136Z,19.40
2019-04-11T04:24:47.516Z,19.67
2019-04-11T04:27:42.963Z,20.88
2019-04-11T04:30:38.979Z,19.90
2019-04-11T04:33:36.197Z,20.27
2019-04-11T04:36:31.283Z,21.45
2019-04-11T04:39:27.869Z,19.82
2019-04-11T04:42:31.071Z,20.92
2019-04-11T04:45:21.608Z,20.60
2019-04-11T04:48:22.448Z,21.77
2019-04-11T04:51:16.320Z,21.97
2019-04-11T04:54:12.113Z,21.25
2019-04-11T04:57:08.721Z,20.62
2019-04-11T05:00:04.971Z,21.50
2019-04-11T05:03:02.082Z,21.93
2019-04-11T05:05:56.088Z,23.92
2019-04-11T05:08:51.603Z,32.67
2019-04-11T05:11:48.602Z,27.20
2019-04-11T05:14:45.478Z,23.45
2019-04-11T05:17:43.936Z,26.05
2019-04-11T05:20:40.523Z,20.90
2019-04-11T05:23:41.750Z,22.32
2019-04-11T05:26:45.962Z,24.23
2019-04-11T05:29:43.920Z,25.10
2019-04-11T05:32:41.756Z,23.27
2019-04-11T05:35:39.479Z,24.27
2019-04-11T05:38:39.481Z,25.00
2019-04-11T05:41:35.699Z,25.90
2019-04-11T05:44:41.694Z,26.00
2019-04-11T05:47:57.076Z,25.77
2019-04-11T05:50:58.525Z,28.98
2019-04-11T05:54:09.168Z,26.45
2019-04-11T05:57:09.086Z,25.20
2019-04-11T06:00:13.851Z,26.20
2019-04-11T06:03:17.902Z,27.25
2019-04-11T06:06:36.406Z,26.37
2019-04-11T06:23:37.138Z,24.70
2019-04-11T06:27:13.860Z,24.82
2019-04-11T06:33:42.775Z,25.75
2019-04-11T06:41:39.302Z,24.07
2019-04-11T06:44:50.539Z,25.43
2019-04-11T06:48:24.791Z,25.50
2019-04-11T06:51:30.200Z,24.45
2019-04-11T06:54:41.336Z,24.75
2019-04-11T06:57:38.770Z,23.73
2019-04-11T07:00:42.053Z,25.17
2019-04-11T07:03:51.107Z,23.98
2019-04-11T07:08:42.468Z,23.85
2019-04-11T07:10:55.263Z,25.37
2019-04-11T07:14:08.188Z,24.02
2019-04-11T07:17:21.250Z,25.15
2019-04-11T07:20:35.628Z,23.92
2019-04-11T07:23:53.266Z,23.32
2019-04-11T07:26:54.686Z,24.80
2019-04-11T07:30:13.486Z,22.70
2019-04-11T07:33:27.126Z,21.73
2019-04-11T07:36:41.030Z,22.98
2019-04-11T07:40:00.971Z,24.77
2019-04-11T07:43:29.630Z,22.52
2019-04-11T07:47:13.679Z,22.65
2019-04-11T07:50:05.746Z,21.73
2019-04-11T07:53:04.984Z,22.48
2019-04-11T07:56:04.044Z,22.00
2019-04-11T07:59:07.231Z,22.45
2019-04-11T08:02:37.685Z,20.80
2019-04-11T08:10:03.402Z,20.57
2019-04-11T08:17:03.673Z,21.40
2019-04-11T08:20:37.473Z,21.95
2019-04-11T08:23:38.060Z,21.40
2019-04-11T08:27:11.348Z,20.65
2019-04-11T08:30:06.594Z,22.30
2019-04-11T08:33:18.249Z,21.80
2019-04-11T08:36:31.605Z,21.57
2019-04-11T08:39:55.468Z,22.67
2019-04-11T08:43:12.884Z,21.97
2019-04-11T08:46:27.433Z,20.57
2019-04-11T08:49:50.581Z,20.55
2019-04-11T08:53:00.601Z,20.50
2019-04-11T08:56:04.004Z,20.72
2019-04-11T09:00:10.200Z,22.17
2019-04-11T09:03:29.159Z,20.10
2019-04-11T09:06:31.004Z,19.90
2019-04-11T09:09:45.636Z,19.77
2019-04-11T09:12:44.783Z,18.95
2019-04-11T09:19:49.372Z,19.55
2019-04-11T09:22:57.618Z,19.00
2019-04-11T09:26:10.332Z,20.25
2019-04-11T09:29:08.253Z,18.65
2019-04-11T09:32:20.165Z,18.80
2019-04-11T09:35:27.219Z,17.80
2019-04-11T09:38:42.873Z,17.12
2019-04-11T09:42:47.635Z,17.30
2019-04-11T09:46:01.941Z,17.48
2019-04-11T09:49:18.477Z,17.05
2019-04-11T09:52:27.381Z,17.77
2019-04-11T09:55:41.703Z,16.70
2019-04-11T09:58:44.191Z,16.20
2019-04-11T10:02:08.081Z,16.10
2019-04-11T10:05:09.587Z,15.55
2019-04-11T10:08:39.612Z,15.13
2019-04-11T10:15:27.794Z,14.38
2019-04-11T10:18:59.823Z,14.73
2019-04-11T10:22:29.105Z,16.25
2019-04-11T10:25:43.262Z,15.85
2019-04-11T10:29:06.421Z,14.60
2019-04-11T10:32:12.766Z,14.98
2019-04-11T10:35:32.441Z,14.93
2019-04-11T10:38:32.942Z,14.65
2019-04-11T10:41:47.621Z,15.05
2019-04-11T10:45:12.690Z,16.55
2019-04-11T10:48:23.759Z,17.23
2019-04-11T10:51:48.017Z,20.30
2019-04-11T10:55:15.715Z,17.35
2019-04-11T10:58:42.672Z,17.07
2019-04-11T11:02:12.815Z,15.30
2019-04-11T11:05:30.440Z,17.12
2019-04-11T11:09:28.324Z,17.70
2019-04-11T11:12:29.577Z,16.07
2019-04-11T11:15:31.652Z,14.73
2019-04-11T11:19:24.612Z,16.00
2019-04-11T11:22:03.876Z,12.70
2019-04-11T11:25:15.341Z,14.35
2019-04-11T11:28:05.426Z,14.80
2019-04-11T11:31:22.395Z,14.00
2019-04-11T11:34:24.703Z,10.03
2019-04-11T11:37:47.097Z,7.40
2019-04-11T11:41:20.586Z,7.90
2019-04-11T11:44:19.254Z,8.18
2019-04-11T11:47:53.930Z,8.08
2019-04-11T11:50:50.585Z,8.60
2019-04-11T11:53:58.117Z,8.45
2019-04-11T11:56:56.450Z,8.63
2019-04-11T11:59:58.736Z,10.70
2019-04-11T12:03:03.290Z,12.20
2019-04-11T12:06:03.061Z,12.07
2019-04-11T12:09:36.340Z,11.80
2019-04-11T12:12:40.066Z,10.38
2019-04-11T12:16:16.078Z,18.37
2019-04-11T12:19:19.637Z,16.52
2019-04-11T13:07:36.736Z,14.28
2019-04-11T13:10:35.236Z,12.35
2019-04-11T13:13:35.864Z,12.13
2019-04-11T13:16:30.554Z,19.23
2019-04-11T13:20:03.978Z,17.60
2019-04-11T13:22:49.126Z,21.35
2019-04-11T13:26:00.818Z,21.33
2019-04-11T13:29:26.324Z,24.95
2019-04-11T13:32:52.947Z,16.32
2019-04-11T13:36:02.671Z,21.42
2019-04-11T13:39:02.381Z,17.85
2019-04-11T13:42:00.582Z,17.80
2019-04-11T13:44:55.817Z,20.25
2019-04-11T13:48:27.810Z,18.35
2019-04-11T13:51:35.143Z,16.48
2019-04-11T13:54:47.324Z,17.77
2019-04-11T13:58:00.195Z,17.25
2019-04-11T14:00:57.387Z,22.67
2019-04-11T14:04:12.832Z,19.70
2019-04-11T14:07:08.804Z,14.03
2019-04-11T14:10:04.911Z,14.50
2019-04-11T14:13:01.086Z,13.93
2019-04-11T14:15:58.400Z,13.80
2019-04-11T14:19:06.987Z,13.83
2019-04-11T14:22:00.194Z,15.15
2019-04-11T14:25:05.613Z,15.28
2019-04-11T14:28:02.551Z,14.55
2019-04-11T14:31:25.410Z,15.45
2019-04-11T14:34:57.026Z,17.62
2019-04-11T14:38:01.000Z,15.75
2019-04-11T14:41:14.331Z,13.03
2019-04-11T14:44:10.530Z,13.62
2019-04-11T14:47:24.817Z,13.80
2019-04-11T14:50:22.051Z,14.55
2019-04-11T14:53:33.635Z,15.70
2019-04-11T14:56:30.619Z,17.90
2019-04-11T14:59:32.912Z,18.37
2019-04-11T15:02:49.310Z,17.85
2019-04-11T15:05:51.990Z,18.50
2019-04-11T15:09:03.887Z,17.60
2019-04-11T15:12:19.374Z,15.88
2019-04-11T15:15:36.497Z,14.95
2019-04-11T15:18:37.116Z,17.42
2019-04-11T15:21:49.026Z,17.17
2019-04-11T15:24:46.314Z,16.40
2019-04-11T15:28:12.401Z,15.93
2019-04-11T15:31:13.652Z,16.90
2019-04-11T15:34:33.347Z,18.55
2019-04-11T15:37:49.643Z,20.12
2019-04-11T15:40:49.086Z,21.77
2019-04-11T15:44:01.459Z,21.87
2019-04-11T15:47:01.055Z,23.00
2019-04-11T15:50:15.839Z,21.17
2019-04-11T15:53:12.065Z,26.80
2019-04-11T15:56:28.063Z,29.07
2019-04-11T15:59:47.131Z,23.50
2019-04-11T16:03:10.509Z,23.95
2019-04-11T16:06:22.296Z,24.25
2019-04-11T16:09:21.422Z,24.18
2019-04-11T16:12:26.593Z,27.50
2019-04-11T16:15:23.294Z,31.37
2019-04-11T16:18:36.662Z,31.20
2019-04-11T16:21:44.696Z,31.87
2019-04-11T16:24:40.447Z,18.70
2019-04-11T16:28:09.027Z,18.80
2019-04-11T16:31:04.550Z,17.70
2019-04-11T16:34:17.323Z,16.57
2019-04-11T16:37:17.515Z,12.53
2019-04-11T16:40:26.007Z,10.32
2019-04-11T16:43:24.355Z,10.03
2019-04-11T16:46:54.899Z,9.40
2019-04-11T16:49:48.841Z,9.63
2019-04-11T16:52:44.639Z,10.80
2019-04-11T16:55:43.157Z,10.65
2019-04-11T16:58:36.703Z,8.95
2019-04-11T17:01:33.001Z,9.55
2019-04-11T17:04:30.449Z,9.40
2019-04-11T17:07:50.783Z,9.93
2019-04-11T17:11:05.185Z,10.20
2019-04-11T17:14:02.135Z,9.08
2019-04-11T17:17:00.610Z,8.25
2019-04-11T17:19:54.381Z,8.53
2019-04-11T17:22:50.063Z,8.68
2019-04-11T17:25:48.069Z,8.93
2019-04-11T17:28:43.437Z,8.83
2019-04-11T17:31:38.889Z,9.10
2019-04-11T17:34:34.351Z,9.35
2019-04-11T17:37:33.196Z,10.28
2019-04-11T17:40:28.606Z,9.88
2019-04-11T17:43:24.962Z,10.48
2019-04-11T17:46:20.878Z,10.75
2019-04-11T17:49:16.832Z,10.72
2019-04-11T17:52:13.753Z,11.95
2019-04-11T17:55:09.751Z,11.50
2019-04-11T17:58:05.828Z,11.78
2019-04-11T18:01:05.220Z,10.88
2019-04-11T18:03:59.295Z,10.63
2019-04-11T18:06:54.976Z,10.43
2019-04-11T18:09:50.993Z,10.28
2019-04-11T18:12:47.452Z,10.90
2019-04-11T18:15:42.918Z,10.25
2019-04-11T18:18:38.230Z,10.40
2019-04-11T18:21:34.907Z,10.85
2019-04-11T18:24:32.547Z,11.00
2019-04-11T18:27:28.177Z,11.57
2019-04-11T18:30:24.335Z,12.03
2019-04-11T18:33:19.558Z,13.35
2019-04-11T18:36:15.788Z,11.65
2019-04-11T18:39:12.087Z,11.03
2019-04-11T18:42:08.710Z,12.20
2019-04-11T18:45:04.450Z,12.05
2019-04-11T18:47:59.790Z,13.68
2019-04-11T18:50:55.196Z,17.05
2019-04-11T18:53:51.543Z,11.95
2019-04-11T18:56:47.240Z,10.13
2019-04-11T18:59:42.800Z,9.73
2019-04-11T19:02:40.255Z,9.18
2019-04-11T19:05:34.530Z,8.93
2019-04-11T19:08:29.970Z,8.53
2019-04-11T19:11:26.047Z,8.58
2019-04-11T19:14:24.591Z,8.85
2019-04-11T19:17:18.688Z,9.40
2019-04-11T19:20:14.463Z,13.72
2019-04-11T19:23:10.162Z,8.90
2019-04-11T19:26:06.405Z,8.35
2019-04-11T19:29:02.220Z,7.85
2019-04-11T19:31:58.205Z,7.78
2019-04-11T19:34:54.285Z,7.80
2019-04-11T19:37:50.072Z,8.13
2019-04-11T19:40:47.117Z,9.95
2019-04-11T19:43:41.372Z,12.50
2019-04-11T19:46:37.009Z,12.60
2019-04-11T19:49:32.878Z,11.95
2019-04-11T19:52:29.857Z,13.28
2019-04-11T19:55:37.319Z,12.88
2019-04-11T19:58:32.776Z,12.95
2019-04-11T20:01:28.416Z,12.53
2019-04-11T20:04:24.685Z,12.90
2019-04-11T20:07:20.441Z,12.05
2019-04-11T20:10:15.826Z,11.83
2019-04-11T20:13:11.282Z,11.70
2019-04-11T20:16:07.672Z,11.35
2019-04-11T20:19:03.285Z,11.43
2019-04-11T20:21:58.913Z,11.18
2019-04-11T20:24:54.223Z,11.03
2019-04-11T20:27:51.278Z,10.75
2019-04-11T20:30:46.841Z,11.00
2019-04-11T20:33:42.691Z,10.50
2019-04-11T20:36:40.822Z,10.25
2019-04-11T20:39:34.648Z,10.13
2019-04-11T20:42:30.651Z,9.68
2019-04-11T20:45:28.529Z,9.63
2019-04-11T20:48:23.494Z,9.58
2019-04-11T20:51:19.062Z,9.15
2019-04-11T20:54:14.646Z,9.73
2019-04-11T20:57:12.226Z,10.23
2019-04-11T21:00:07.078Z,9.98
2019-04-11T21:03:02.781Z,9.20
2019-04-11T21:05:59.050Z,8.90
2019-04-11T21:08:53.900Z,9.05
2019-04-11T21:11:50.384Z,8.95
2019-04-11T21:14:46.158Z,8.70
2019-04-11T21:17:42.731Z,8.85
2019-04-11T21:20:39.664Z,8.95
2019-04-11T21:23:34.237Z,8.53
2019-04-11T21:26:29.860Z,8.63
2019-04-11T21:29:25.728Z,8.55
2019-04-11T21:32:21.119Z,8.95
2019-04-11T21:35:16.815Z,8.48
2019-04-11T21:38:12.340Z,9.00
2019-04-11T21:41:08.243Z,8.90
2019-04-11T21:44:05.832Z,8.55
2019-04-11T21:47:00.479Z,8.88
2019-04-11T21:49:56.288Z,8.98
2019-04-11T21:52:51.795Z,9.00
2019-04-11T21:55:47.818Z,8.93
2019-04-11T21:58:43.952Z,8.90
2019-04-11T22:01:40.294Z,9.08
2019-04-11T22:04:35.670Z,9.23
2019-04-11T22:07:31.590Z,8.88
2019-04-11T22:10:27.068Z,9.50
2019-04-11T22:13:22.425Z,9.55
2019-04-11T22:16:18.142Z,9.95
2019-04-11T22:19:14.361Z,9.80
2019-04-11T22:22:09.801Z,9.25
2019-04-11T22:25:05.384Z,9.70
2019-04-11T22:28:01.120Z,8.90
2019-04-11T22:30:57.229Z,9.05
2019-04-11T22:34:10.584Z,9.63
2019-04-11T22:37:05.263Z,9.18
2019-04-11T22:40:02.076Z,9.55
2019-04-11T22:42:57.802Z,9.65
2019-04-11T22:45:53.357Z,9.08
2019-04-11T22:48:48.877Z,9.80
2019-04-11T22:51:44.614Z,9.10
2019-04-11T22:54:41.805Z,9.30
2019-04-11T22:57:37.867Z,9.00
2019-04-11T23:00:33.818Z,9.28
2019-04-11T23:03:37.189Z,9.23
2019-04-11T23:06:33.337Z,9.00
2019-04-11T23:09:29.349Z,8.78
2019-04-11T23:12:25.508Z,9.30
2019-04-11T23:15:21.434Z,9.25
2019-04-11T23:18:17.614Z,9.20
2019-04-11T23:21:14.374Z,9.83
2019-04-11T23:24:12.045Z,9.88
2019-04-11T23:27:07.279Z,9.88
2019-04-11T23:30:03.126Z,10.08
2019-04-11T23:32:59.648Z,10.05
2019-04-11T23:35:55.509Z,9.83
2019-04-11T23:38:52.702Z,9.75
2019-04-11T23:41:49.676Z,11.48
2019-04-11T23:44:43.687Z,15.72
2019-04-11T23:47:39.918Z,20.65
2019-04-11T23:50:35.500Z,20.95
2019-04-11T23:53:31.378Z,20.88
2019-04-11T23:56:30.130Z,19.73
2019-04-11T23:59:24.470Z,18.00
